Airport Name : Roi Et

Other Name : Roi Et

ICAO : VTUV

IATA : ROI

FAA :

Latitude : 16.116761

Longitude : 103.773797

Country : Thailand

Local Date and Time : 17 Jun 2024 09:06

 

TAF (Terminal Aerodrome Forecast)

TAF VTUV 162300Z 1700/1724 21005KT 9000 SCT030

 

METAR (METeorological Aerodrome Report)

VTUV 170200Z 23009KT 200V260 CAVOK 30/25 Q1008 NOSIG

VTUV 170100Z 21005KT 180V240 CAVOK 28/25 Q1008 NOSIG

VTUV 170000Z 18004KT CAVOK 27/25 Q1007 NOSIG

VTUV 162300Z 18004KT 9000 NSC 25/25 Q1007 NOSIG